logo
Search for airport 
image banner adimage banner adimage banner ad
image banner ad

LOMW - Wolfsberg Lkh

Located in District Wolfsberg, Austria

ICAO - , IATA -

Data provided by Airmate  

General information

Coordinates: N46°49'57" E14°50'53"
Elevation is 1575 feet MSL.
 
View others Airports in Carinthia

Operational data

Special qualification required
Current time UTC:
Current local time:
Weather at : LOXZ - Zeltweg ( 42 km )
METAR: LOXZ 201150Z VRB04KT 9999 FEW035 SCT110 BKN300 22/11 Q1012 NOSIG
TAF: TAF LOXZ 201115Z 2012/2021 VRB03KT 9999 FEW050 SCT100 TEMPO 2012/2017 12012KT FEW050TCU BKN100
View NOTAMs / SUP AIP / TFR affecting this airport [VIEW]
Communications frequencies: [VIEW]

Runways:

Airport contact information

Address: District Wolfsberg Austria

Satellite view of LOMW